Time;durP1;ratioP1;P1;durP2;ratioP2;P2;SDS_P1;SDS_P2;PMS_P1;PMS_P2;Temp;Humidity;BMP_temperature;BMP_pressure;BME280_temperature;BME280_humidity;BME280_pressure;Samples;Min_cycle;Max_cycle;Signal;HPM_P1;HPM_P2
2023/10/16 00:01:10;;;;;;;2.60;2.40;;;;;;;-143.21;70.05;72595.75;5067135;28;20205;-77
2023/10/16 00:03:41;;;;;;;2.50;2.30;;;;;;;-143.21;70.21;72585.81;5067721;28;20317;-77
2023/10/16 00:06:12;;;;;;;2.77;2.07;;;;;;;-143.21;69.84;72589.78;5068130;28;20201;-77
2023/10/16 00:08:47;;;;;;;1.87;1.77;;;;;;;-143.21;69.44;72601.69;5067563;28;20201;-77
2023/10/16 00:11:16;;;;;;;2.37;2.17;;;;;;;-143.21;69.93;72615.56;5066400;28;20200;-76
2023/10/16 00:13:44;;;;;;;2.27;2.03;;;;;;;-143.21;70.39;72621.53;5067403;28;20559;-77
2023/10/16 00:16:15;;;;;;;2.20;2.00;;;;;;;-143.21;69.86;72613.59;5068513;28;20202;-77
2023/10/16 00:18:42;;;;;;;2.20;2.00;;;;;;;-143.21;69.02;72609.63;5067809;28;20296;-77
2023/10/16 00:21:10;;;;;;;2.97;2.00;;;;;;;-143.21;69.28;72629.44;5067698;28;20197;-76
2023/10/16 00:23:39;;;;;;;2.47;2.00;;;;;;;-143.21;69.89;72633.41;5067562;28;20695;-77
2023/10/16 00:26:07;;;;;;;2.20;2.00;;;;;;;-143.21;69.97;72639.38;5067258;28;20205;-78
2023/10/16 00:28:34;;;;;;;2.10;1.90;;;;;;;-143.21;69.32;72633.41;5067453;28;20201;-77
2023/10/16 00:31:03;;;;;;;2.17;1.97;;;;;;;-143.21;69.19;72651.28;5068176;28;20555;-78
2023/10/16 00:33:30;;;;;;;3.47;2.10;;;;;;;-143.21;70.23;72673.09;5065098;28;20255;-78
2023/10/16 00:35:56;;;;;;;2.23;2.03;;;;;;;-143.21;70.18;72692.91;5068027;28;20205;-77
2023/10/16 00:38:25;;;;;;;2.00;1.80;;;;;;;-143.21;70.20;72688.94;5067924;28;20217;-77
2023/10/16 00:41:09;;;;;;;2.00;1.90;;;;;;;-143.21;70.36;72696.88;5067579;28;20209;-78
2023/10/16 00:43:36;;;;;;;2.33;2.10;;;;;;;-143.21;69.59;72681.03;5065749;28;20267;-78
2023/10/16 00:46:06;;;;;;;2.30;2.10;;;;;;;-143.21;69.75;72690.94;5068194;28;20197;-78
2023/10/16 00:48:34;;;;;;;3.17;2.43;;;;;;;-143.21;69.95;72702.84;5067500;28;20212;-78
2023/10/16 00:51:08;;;;;;;2.40;2.20;;;;;;;-143.21;69.65;72692.91;5070188;28;20687;-78
2023/10/16 00:53:38;;;;;;;2.80;2.53;;;;;;;-143.21;69.68;72677.06;5068255;28;20264;-79
2023/10/16 00:56:08;;;;;;;8.40;3.30;;;;;;;-143.21;70.20;72700.84;5071377;28;20640;-78
2023/10/16 00:58:35;;;;;;;3.10;2.80;;;;;;;-143.21;70.81;72714.72;5071487;28;20201;-77
2023/10/16 01:01:05;;;;;;;4.80;3.73;;;;;;;-143.21;70.35;72730.59;5068298;28;20217;-78
2023/10/16 01:03:34;;;;;;;6.00;3.90;;;;;;;-143.21;70.58;72728.63;5070844;28;20255;-77
2023/10/16 01:06:02;;;;;;;5.47;4.03;;;;;;;-143.21;70.36;72730.59;5071721;28;20197;-78
2023/10/16 01:08:29;;;;;;;5.00;3.90;;;;;;;-143.21;70.11;72734.56;5071725;28;20246;-77
2023/10/16 01:10:58;;;;;;;4.40;3.70;;;;;;;-143.21;70.12;72748.47;5071303;28;20228;-78
2023/10/16 01:13:28;;;;;;;6.77;4.27;;;;;;;-143.21;71.00;72758.38;5071859;28;20641;-78
2023/10/16 01:15:56;;;;;;;5.20;4.40;;;;;;;-143.21;71.15;72754.41;5071093;28;20213;-77
2023/10/16 01:18:23;;;;;;;5.83;5.00;;;;;;;-143.21;70.84;72764.31;5071197;28;20289;-77
2023/10/16 01:20:51;;;;;;;7.43;5.07;;;;;;;-143.21;71.15;72764.31;5071294;28;20596;-79
2023/10/16 01:23:21;;;;;;;8.60;5.60;;;;;;;-143.21;71.13;72772.25;5071217;28;20233;-77
2023/10/16 01:25:48;;;;;;;5.73;4.83;;;;;;;-143.21;70.65;72762.34;5070978;28;20198;-78
2023/10/16 01:28:16;;;;;;;6.67;5.10;;;;;;;-143.21;71.55;72788.13;5070866;28;20675;-79
2023/10/16 01:30:45;;;;;;;7.03;5.63;;;;;;;-143.21;71.51;72802.00;5070232;28;20707;-77
2023/10/16 01:33:12;;;;;;;8.30;6.10;;;;;;;-143.21;71.85;72804.00;5070652;28;20772;-78
2023/10/16 01:35:39;;;;;;;8.30;5.60;;;;;;;-143.21;71.57;72804.00;5070621;28;20217;-78
2023/10/16 01:38:14;;;;;;;7.80;5.87;;;;;;;-143.21;71.60;72804.00;5070708;28;20208;-78
2023/10/16 01:40:47;;;;;;;8.40;6.73;;;;;;;-143.21;72.21;72815.88;5070697;28;20266;-77
2023/10/16 01:43:14;;;;;;;7.50;6.47;;;;;;;-143.21;72.83;72837.72;5069869;28;20703;-77
2023/10/16 01:45:49;;;;;;;7.90;6.20;;;;;;;-143.21;72.22;72829.78;5070838;28;20213;-78
2023/10/16 01:48:19;;;;;;;10.10;7.37;;;;;;;-143.21;72.19;72825.81;5069412;28;20201;-77
2023/10/16 01:50:48;;;;;;;9.87;7.53;;;;;;;-143.21;72.51;72833.75;5069892;28;20220;-77
2023/10/16 01:53:20;;;;;;;10.00;8.03;;;;;;;-143.21;72.49;72851.59;5069568;28;20261;-77
2023/10/16 01:55:54;;;;;;;10.23;8.10;;;;;;;-143.21;72.88;72835.72;5069660;28;20306;-78
2023/10/16 01:58:22;;;;;;;9.73;7.83;;;;;;;-143.21;72.10;72835.72;5069858;28;20904;-78
2023/10/16 02:00:50;;;;;;;14.87;8.50;;;;;;;-143.21;72.02;72843.66;5069321;28;20312;-77
2023/10/16 02:03:17;;;;;;;11.30;8.27;;;;;;;-143.21;71.46;72835.72;5069605;28;20193;-77
2023/10/16 02:05:45;;;;;;;8.97;7.30;;;;;;;-143.21;70.30;72819.84;5070008;28;20228;-78
2023/10/16 02:08:13;;;;;;;10.67;6.57;;;;;;;-143.21;68.97;72827.78;5070762;28;20204;-77
2023/10/16 02:10:41;;;;;;;9.67;6.33;;;;;;;-143.21;68.09;72835.72;5069953;28;20201;-77
2023/10/16 02:13:10;;;;;;;8.77;6.03;;;;;;;-143.21;68.80;72845.63;5069378;28;20313;-78
2023/10/16 02:15:38;;;;;;;7.60;6.53;;;;;;;-143.21;68.35;72849.59;5069943;28;20220;-78
2023/10/16 02:18:06;;;;;;;9.53;6.50;;;;;;;-143.21;68.53;72859.53;5069752;28;20255;-77
2023/10/16 02:20:36;;;;;;;7.47;6.67;;;;;;;-143.21;67.96;72835.72;5069650;28;20201;-78
2023/10/16 02:23:06;;;;;;;10.43;6.67;;;;;;;-143.21;67.22;72815.88;5065610;28;20208;-78
2023/10/16 02:25:35;;;;;;;8.70;6.10;;;;;;;-143.21;66.78;72809.94;5068357;28;20205;-78
2023/10/16 02:28:03;;;;;;;9.27;6.37;;;;;;;-143.21;66.59;72815.88;5066899;28;20721;-77
2023/10/16 02:30:36;;;;;;;9.33;6.87;;;;;;;-143.21;66.73;72815.88;5069973;28;20316;-78
2023/10/16 02:33:14;;;;;;;8.97;6.80;;;;;;;-143.21;66.23;72815.88;5066521;28;20209;-78
2023/10/16 02:35:44;;;;;;;8.50;6.90;;;;;;;-143.21;65.33;72798.03;5069152;28;20201;-78
2023/10/16 02:38:14;;;;;;;8.30;6.17;;;;;;;-143.21;65.05;72804.00;5069304;28;20205;-77
2023/10/16 02:40:43;;;;;;;7.67;6.40;;;;;;;-143.21;65.22;72817.88;5069187;28;20376;-77
2023/10/16 02:43:18;;;;;;;8.07;6.10;;;;;;;-143.21;65.51;72813.91;5069884;28;20562;-77
2023/10/16 02:45:47;;;;;;;8.63;6.17;;;;;;;-143.21;65.72;72831.75;5068673;28;20200;-77
2023/10/16 02:48:16;;;;;;;9.43;6.30;;;;;;;-143.21;65.95;72833.75;5069468;28;20258;-78
2023/10/16 02:50:49;;;;;;;11.50;7.03;;;;;;;-143.21;65.30;72825.81;5069929;28;20213;-78
2023/10/16 02:53:21;;;;;;;8.70;6.03;;;;;;;-143.21;65.09;72841.69;5069582;28;20239;-77
2023/10/16 02:55:49;;;;;;;7.13;6.00;;;;;;;-143.21;64.70;72853.56;5069789;28;20209;-78
2023/10/16 02:58:16;;;;;;;7.50;5.77;;;;;;;-143.21;64.43;72871.44;5069675;28;20237;-77
2023/10/16 03:00:49;;;;;;;6.37;5.57;;;;;;;-143.21;64.25;72871.44;5069492;28;20197;-77
2023/10/16 03:03:18;;;;;;;7.93;5.63;;;;;;;-143.21;64.50;72873.41;5069999;28;20254;-78
2023/10/16 03:05:45;;;;;;;10.90;6.33;;;;;;;-143.21;64.74;72883.31;5069452;28;20201;-80
2023/10/16 03:08:12;;;;;;;7.60;5.70;;;;;;;-143.21;64.45;72893.25;5069651;28;20290;-79
2023/10/16 03:10:40;;;;;;;7.67;5.40;;;;;;;-143.21;64.57;72893.25;5069352;28;20209;-79
2023/10/16 03:13:07;;;;;;;8.33;5.80;;;;;;;-143.21;64.87;72901.19;5068637;28;20304;-80
2023/10/16 03:15:42;;;;;;;6.77;5.93;;;;;;;-143.21;64.93;72915.06;5069333;28;20303;-79
2023/10/16 03:18:16;;;;;;;9.60;6.37;;;;;;;-143.21;64.52;72915.06;5069625;28;20205;-79
2023/10/16 03:20:46;;;;;;;7.77;5.80;;;;;;;-143.21;65.22;72934.91;5068849;28;20192;-79
2023/10/16 03:23:18;;;;;;;7.47;6.00;;;;;;;-143.21;65.69;72930.94;5068473;28;20680;-80
2023/10/16 03:25:54;;;;;;;7.30;5.93;;;;;;;-143.21;65.63;72930.94;5069327;28;20320;-79
2023/10/16 03:28:23;;;;;;;10.23;6.03;;;;;;;-143.21;65.07;72930.94;5069151;28;20205;-80
2023/10/16 03:30:51;;;;;;;7.23;6.03;;;;;;;-143.21;65.41;72946.81;5068458;28;20256;-80
2023/10/16 03:33:18;;;;;;;7.60;6.57;;;;;;;-143.21;65.31;72926.97;5068588;28;20235;-79
2023/10/16 03:35:49;;;;;;;8.00;6.70;;;;;;;-143.21;65.69;72934.91;5068422;28;20229;-78
2023/10/16 03:38:24;;;;;;;9.77;6.83;;;;;;;-143.21;65.48;72926.97;5067712;28;20935;-78
2023/10/16 03:40:52;;;;;;;8.93;6.73;;;;;;;-143.21;64.86;72934.91;5068623;28;20201;-79
2023/10/16 03:43:22;;;;;;;7.50;6.57;;;;;;;-143.21;65.22;72946.81;5068450;28;21321;-77
2023/10/16 03:45:49;;;;;;;8.73;7.00;;;;;;;-143.21;65.22;72948.78;5068521;28;20205;-78
2023/10/16 03:48:16;;;;;;;11.40;7.30;;;;;;;-143.21;65.25;72936.88;5067745;28;20204;-78
2023/10/16 03:50:44;;;;;;;9.20;6.50;;;;;;;-143.21;64.64;72940.84;5067303;28;20225;-78
2023/10/16 03:53:13;;;;;;;8.37;7.00;;;;;;;-143.21;65.48;72952.75;5067863;28;20197;-78
2023/10/16 03:55:44;;;;;;;9.73;7.27;;;;;;;-143.21;64.75;72954.72;5068091;28;20284;-78
2023/10/16 03:58:12;;;;;;;9.67;6.73;;;;;;;-143.21;64.89;72946.81;5068038;28;20205;-79
2023/10/16 04:00:52;;;;;;;11.03;7.83;;;;;;;-143.21;65.19;72952.75;5067568;28;20201;-77
2023/10/16 04:03:21;;;;;;;10.03;6.37;;;;;;;-143.21;65.10;72948.78;5068058;28;20212;-78
2023/10/16 04:05:49;;;;;;;10.03;7.07;;;;;;;-143.21;65.27;72968.63;5068150;28;20213;-78
2023/10/16 04:08:21;;;;;;;10.27;6.80;;;;;;;-143.21;65.24;72968.63;5068191;28;20201;-79
2023/10/16 04:10:49;;;;;;;8.10;6.87;;;;;;;-143.21;65.48;72990.44;5067422;28;20610;-78
2023/10/16 04:13:17;;;;;;;10.03;7.30;;;;;;;-143.21;64.83;72994.41;5067483;28;20290;-78
2023/10/16 04:18:30;;;;;;;9.63;6.80;;;;;;;-143.21;64.44;72966.63;5068243;28;20203;-78
2023/10/16 04:21:29;;;;;;;14.90;7.10;;;;;;;-143.21;63.95;72956.72;5067936;28;20201;-78
2023/10/16 04:23:58;;;;;;;9.63;6.47;;;;;;;-143.21;63.50;72950.78;5068061;28;20194;-78
2023/10/16 04:26:47;;;;;;;10.57;6.37;;;;;;;-143.21;63.37;72974.56;5072807;28;20197;-78
2023/10/16 04:29:28;;;;;;;12.70;7.00;;;;;;;-143.21;63.60;72988.47;5070812;28;20610;-78
2023/10/16 04:31:58;;;;;;;9.10;6.63;;;;;;;-143.21;63.85;73008.28;5072035;28;20201;-78
2023/10/16 04:34:31;;;;;;;10.20;6.93;;;;;;;-143.21;64.19;73004.31;5072080;28;20216;-78
2023/10/16 04:45:28;;;;;;;7.30;5.83;;;;;;;-143.21;63.94;73018.22;5062844;28;20212;-78
2023/10/16 04:48:07;;;;;;;9.30;5.90;;;;;;;-143.21;63.91;73032.09;5072459;28;20215;-76
2023/10/16 04:50:49;;;;;;;8.73;6.10;;;;;;;-143.21;64.41;73042.00;5069230;28;20201;-77
2023/10/16 04:53:21;;;;;;;8.17;5.87;;;;;;;-143.21;63.85;73040.03;5071337;28;20209;-76
2023/10/16 04:56:04;;;;;;;12.40;5.77;;;;;;;-143.21;64.15;73055.91;5071516;28;20248;-75
2023/10/16 04:58:39;;;;;;;9.90;5.57;;;;;;;-143.21;63.88;73044.00;5068224;28;20675;-76
2023/10/16 05:06:52;;;;;;;9.43;6.10;;;;;;;-143.21;64.13;73085.66;5071203;28;20204;-76
2023/10/16 06:15:02;;;;;;;9.00;4.50;;;;;;;-143.21;59.78;73137.22;5046356;28;20228;-76
2023/10/16 06:17:30;;;;;;;6.33;4.57;;;;;;;-143.21;59.99;73129.28;5070337;28;20579;-77
2023/10/16 06:19:57;;;;;;;8.73;4.80;;;;;;;-143.21;59.86;73129.28;5069419;28;20198;-76
2023/10/16 06:22:24;;;;;;;10.63;4.27;;;;;;;-143.21;59.70;73131.28;5069616;28;20587;-76
2023/10/16 06:24:52;;;;;;;7.77;4.13;;;;;;;-143.21;59.05;73133.25;5069612;28;20212;-76
2023/10/16 06:27:20;;;;;;;14.27;4.73;;;;;;;-143.21;59.43;73135.25;5068817;28;20229;-75
2023/10/16 06:29:50;;;;;;;12.43;5.03;;;;;;;-143.21;59.10;73123.34;5068970;28;20226;-76
2023/10/16 06:32:19;;;;;;;6.27;4.53;;;;;;;-143.21;58.78;73135.25;5069278;28;20323;-75
2023/10/16 06:34:48;;;;;;;5.70;4.23;;;;;;;-143.21;58.73;73117.38;5069467;28;20218;-76
2023/10/16 06:37:17;;;;;;;7.63;5.33;;;;;;;-143.21;58.37;73091.59;5068809;28;20611;-77
2023/10/16 06:39:45;;;;;;;9.40;4.40;;;;;;;-143.21;57.56;73093.59;5069205;28;20209;-76
2023/10/16 06:42:17;;;;;;;9.60;4.50;;;;;;;-143.21;58.09;73099.53;5069440;28;20549;-76
2023/10/16 06:45:07;;;;;;;10.00;4.60;;;;;;;-143.21;57.71;73095.56;5069005;28;20643;-76
2023/10/16 06:48:08;;;;;;;5.00;4.10;;;;;;;-143.21;57.66;73089.63;5063496;28;21004;-77
2023/10/16 06:50:44;;;;;;;7.13;4.43;;;;;;;-143.21;57.12;73085.66;5066696;27;20205;-78
2023/10/16 06:53:11;;;;;;;10.60;4.73;;;;;;;-143.21;57.16;73093.59;5068755;28;20254;-77
2023/10/16 06:55:37;;;;;;;10.50;5.47;;;;;;;-143.21;57.24;73089.63;5066674;28;20635;-78
2023/10/16 06:58:05;;;;;;;8.90;5.20;;;;;;;-143.21;57.27;73101.53;5069279;28;20201;-76
2023/10/16 07:00:38;;;;;;;6.27;4.23;;;;;;;-143.21;57.03;73111.44;5068890;28;20210;-77
2023/10/16 07:03:12;;;;;;;5.73;4.30;;;;;;;-143.21;57.34;73121.34;5066211;28;20266;-77
2023/10/16 07:05:45;;;;;;;5.77;3.73;;;;;;;-143.21;58.15;73145.16;5068472;28;20239;-77
2023/10/16 07:08:16;;;;;;;9.33;4.47;;;;;;;-143.21;58.05;73137.22;5068660;28;20224;-77
2023/10/16 07:10:48;;;;;;;8.00;4.20;;;;;;;-143.21;58.29;73135.25;5068632;28;20309;-77
2023/10/16 07:13:27;;;;;;;6.03;4.13;;;;;;;-143.21;57.56;73119.38;5068013;28;20201;-77
2023/10/16 07:15:56;;;;;;;6.57;4.80;;;;;;;-143.21;58.33;73129.28;5068420;28;20264;-77
2023/10/16 07:18:25;;;;;;;12.17;4.20;;;;;;;-143.21;58.25;73129.28;5068960;28;20225;-77
2023/10/16 07:21:07;;;;;;;10.53;5.20;;;;;;;-143.21;58.19;73117.38;5068305;28;20282;-77
2023/10/16 07:23:35;;;;;;;12.93;4.60;;;;;;;-143.21;57.00;73107.47;5066764;28;20583;-77
2023/10/16 07:26:02;;;;;;;12.90;4.43;;;;;;;-143.21;57.60;73115.41;5068235;28;20714;-77
2023/10/16 07:28:30;;;;;;;8.13;4.30;;;;;;;-143.21;57.03;73105.47;5068215;28;20631;-77
2023/10/16 07:30:59;;;;;;;7.60;4.07;;;;;;;-143.21;56.95;73107.47;5068665;28;20210;-78
2023/10/16 07:33:30;;;;;;;6.90;4.47;;;;;;;-143.21;57.30;73103.50;5068415;28;20215;-78
2023/10/16 07:36:10;;;;;;;7.83;3.53;;;;;;;-143.21;56.16;73085.66;5065408;28;20216;-78
2023/10/16 07:38:38;;;;;;;8.50;4.30;;;;;;;-143.21;55.53;73063.84;5065999;28;20668;-77
2023/10/16 07:41:09;;;;;;;9.60;3.67;;;;;;;-143.21;55.20;73065.81;5069594;28;20186;-82
2023/10/16 07:43:36;;;;;;;8.17;3.67;;;;;;;-143.21;55.61;73053.91;5045853;28;20242;-81
2023/10/16 07:46:19;;;;;;;7.90;3.70;;;;;;;-143.21;54.83;73044.00;5068670;28;20209;-81
2023/10/16 07:48:50;;;;;;;5.37;3.50;;;;;;;-143.21;54.16;73030.09;5068484;28;20325;-79
2023/10/16 07:51:20;;;;;;;7.67;4.00;;;;;;;-143.21;54.14;73022.19;5069183;28;20194;-81
2023/10/16 07:53:49;;;;;;;7.70;3.33;;;;;;;-143.21;53.00;73002.34;5069457;28;20660;-80
2023/10/16 07:56:25;;;;;;;6.57;3.47;;;;;;;-143.21;53.21;73000.34;5069568;28;20221;-81
2023/10/16 07:58:56;;;;;;;7.87;3.50;;;;;;;-143.21;52.42;72994.41;5069952;28;20224;-80
2023/10/16 08:01:42;;;;;;;5.63;3.53;;;;;;;-143.21;51.50;72994.41;5076357;28;20197;-80
2023/10/16 08:04:35;;;;;;;9.37;3.30;;;;;;;-143.21;51.82;72994.41;5071209;28;20660;-81
2023/10/16 08:07:05;;;;;;;13.17;3.87;;;;;;;-143.21;51.37;72986.47;5070796;28;20197;-81
2023/10/16 08:12:34;;;;;;;8.20;3.67;;;;;;;-143.21;50.23;72960.69;5070769;28;20239;-82
2023/10/16 08:15:14;;;;;;;8.97;3.77;;;;;;;-143.21;49.59;72944.81;5071073;28;20583;-81
2023/10/16 08:17:45;;;;;;;11.90;5.73;;;;;;;-143.21;49.23;72944.81;5071116;28;20197;-79
2023/10/16 08:20:21;;;;;;;7.13;3.60;;;;;;;-143.21;48.93;72915.06;5070684;28;20225;-81
2023/10/16 08:22:51;;;;;;;8.90;3.90;;;;;;;-143.21;48.76;72907.13;5070610;28;20209;-82
2023/10/16 08:25:34;;;;;;;6.63;3.03;;;;;;;-143.21;48.23;72903.16;5070507;28;20672;-81
2023/10/16 08:28:18;;;;;;;7.70;3.23;;;;;;;-143.21;47.86;72889.28;5070330;28;20201;-81
2023/10/16 08:30:52;;;;;;;7.27;3.23;;;;;;;-143.21;47.57;72879.38;5066983;28;20611;-81
2023/10/16 08:33:19;;;;;;;5.10;3.07;;;;;;;-143.21;46.56;72853.56;5050919;28;20613;-80
2023/10/16 08:35:46;;;;;;;11.03;2.80;;;;;;;-143.21;45.64;72839.69;5051129;28;20228;-82
2023/10/16 08:38:15;;;;;;;5.00;3.10;;;;;;;-143.21;46.06;72825.81;5051359;28;20366;-81
2023/10/16 08:40:46;;;;;;;5.53;3.53;;;;;;;-143.21;45.87;72786.13;5055076;28;20627;-80
2023/10/16 08:43:18;;;;;;;8.03;3.63;;;;;;;-143.21;45.85;72762.34;5070809;28;20197;-79
2023/10/16 08:45:48;;;;;;;11.87;3.30;;;;;;;-143.21;45.12;72718.69;5071148;28;20183;-80
2023/10/16 08:48:17;;;;;;;8.03;3.20;;;;;;;-143.21;42.93;72694.91;5063576;28;20233;-77
2023/10/16 08:50:52;;;;;;;13.23;2.90;;;;;;;-143.21;43.41;72685.00;5071067;28;20201;-81
2023/10/16 08:53:32;;;;;;;6.63;3.27;;;;;;;-143.21;43.50;72683.00;5071165;28;20188;-79
2023/10/16 08:56:03;;;;;;;6.77;2.80;;;;;;;-143.21;42.99;72683.00;5071187;28;20216;-84
2023/10/16 08:58:38;;;;;;;4.60;2.77;;;;;;;-143.21;42.72;72679.03;5070346;28;20668;-80
2023/10/16 09:01:10;;;;;;;4.20;3.20;;;;;;;-143.21;42.30;72643.34;5070345;28;20205;-77
2023/10/16 09:03:44;;;;;;;3.33;2.70;;;;;;;-143.21;41.20;72659.19;5070356;28;20198;-79
2023/10/16 09:06:23;;;;;;;6.70;2.60;;;;;;;-143.21;40.70;72665.16;5069938;28;20674;-82
2023/10/16 09:08:54;;;;;;;4.00;2.67;;;;;;;-143.21;40.81;72643.34;5070904;28;20220;-81
2023/10/16 09:11:21;;;;;;;6.50;2.90;;;;;;;-143.21;40.57;72615.56;5073686;28;20193;-79
2023/10/16 09:13:51;;;;;;;4.67;2.20;;;;;;;-143.21;39.53;72579.88;5072341;28;20197;-79
2023/10/16 09:16:21;;;;;;;4.30;2.60;;;;;;;-143.21;38.90;72528.31;5073248;28;20225;-77
2023/10/16 09:18:48;;;;;;;3.83;2.43;;;;;;;-143.21;38.47;72474.75;5073944;28;20201;-79
2023/10/16 09:21:24;;;;;;;7.63;2.60;;;;;;;-143.21;37.95;72466.81;5074229;28;20581;-79
2023/10/16 09:23:52;;;;;;;6.63;2.90;;;;;;;-143.21;38.21;72439.06;5074176;28;20262;-79
2023/10/16 09:26:23;;;;;;;5.07;2.77;;;;;;;-143.21;37.84;72437.06;5074119;28;20671;-78
2023/10/16 09:28:53;;;;;;;8.13;2.80;;;;;;;-143.21;37.78;72421.22;5074137;28;20197;-79
2023/10/16 09:31:21;;;;;;;4.10;2.53;;;;;;;-143.21;37.60;72373.63;5074202;28;20212;-78
2023/10/16 09:33:49;;;;;;;9.13;2.77;;;;;;;-143.21;36.55;72359.72;5074363;28;20244;-76
2023/10/16 09:36:18;;;;;;;4.60;2.50;;;;;;;-143.21;36.19;72341.88;5071016;28;20282;-88
2023/10/16 09:38:51;;;;;;;5.60;2.53;;;;;;;-143.21;36.37;72329.97;5065738;28;20256;-87
2023/10/16 09:44:09;;;;;;;5.53;3.00;;;;;;;-143.21;35.16;72226.84;5074745;28;20204;-86
2023/10/16 09:47:01;;;;;;;4.33;2.40;;;;;;;-143.21;34.58;72260.56;5074384;28;20188;-86
2023/10/16 09:49:30;;;;;;;4.53;2.37;;;;;;;-143.21;34.70;72260.56;5070337;28;20212;-87
2023/10/16 09:52:03;;;;;;;5.23;2.57;;;;;;;-143.21;34.69;72260.56;5054764;28;20198;-86
2023/10/16 09:54:40;;;;;;;5.27;2.47;;;;;;;-143.21;34.69;72222.91;5067898;28;20281;-84
2023/10/16 09:57:10;;;;;;;3.40;2.30;;;;;;;-143.21;34.06;72226.84;5073033;28;20228;-84
2023/10/16 09:59:39;;;;;;;3.70;2.20;;;;;;;-143.21;34.01;72232.81;5073925;28;20316;-86
2023/10/16 10:02:09;;;;;;;4.10;2.53;;;;;;;-143.21;34.01;72205.03;5073942;28;20206;-87
2023/10/16 10:04:39;;;;;;;3.60;2.70;;;;;;;-143.21;33.76;72161.41;5073752;28;20189;-86
2023/10/16 10:07:18;;;;;;;6.20;2.57;;;;;;;-143.21;32.84;72133.66;5073137;28;20185;-86
2023/10/16 10:09:57;;;;;;;3.37;2.43;;;;;;;-143.21;32.38;72105.91;5073717;28;20246;-85
2023/10/16 10:12:41;;;;;;;3.72;2.58;;;;;;;-143.21;32.21;72058.31;5073061;28;20296;-86
2023/10/16 10:15:22;;;;;;;6.37;2.50;;;;;;;-143.21;31.34;72018.63;5072111;28;20197;-85
2023/10/16 10:17:54;;;;;;;8.60;3.15;;;;;;;-143.21;30.81;71931.38;5073266;28;20202;-83
2023/10/16 10:20:26;;;;;;;8.55;2.42;;;;;;;-143.21;30.57;71883.81;5073123;28;20687;-84
2023/10/16 10:25:45;;;;;;;2.80;1.92;;;;;;;-143.21;29.87;71865.97;5070552;28;20673;-84
2023/10/16 10:28:23;;;;;;;7.55;2.58;;;;;;;-143.21;29.62;71873.88;5072677;28;20675;-85
2023/10/16 10:31:02;;;;;;;6.00;2.17;;;;;;;-143.21;30.03;71879.84;5068211;28;20230;-84
2023/10/16 10:33:51;;;;;;;4.18;2.10;;;;;;;-143.21;29.49;71856.03;5054069;28;20194;-84
2023/10/16 10:36:38;;;;;;;3.83;2.20;;;;;;;-143.21;29.25;71788.63;5068437;28;20300;-85
2023/10/16 10:39:39;;;;;;;3.10;2.28;;;;;;;-143.21;28.79;71750.94;5072704;28;20235;-85
2023/10/16 10:42:24;;;;;;;3.90;2.90;;;;;;;-143.21;28.89;71822.34;5072651;28;20198;-84
2023/10/16 10:47:47;;;;;;;3.00;2.10;;;;;;;-143.21;29.80;71939.31;5072417;28;20284;-84
2023/10/16 10:50:15;;;;;;;2.25;2.05;;;;;;;-143.21;29.78;71881.81;5072458;28;20201;-83
2023/10/16 10:52:46;;;;;;;2.38;2.17;;;;;;;-143.21;29.00;71826.28;5072161;28;20719;-83
2023/10/16 10:55:21;;;;;;;6.68;2.38;;;;;;;-143.21;29.37;71812.41;5072506;28;20287;-83
2023/10/16 10:57:55;;;;;;;3.42;2.22;;;;;;;-143.21;28.83;71788.63;5066584;28;20250;-83
2023/10/16 11:03:44;;;;;;;5.78;2.33;;;;;;;-143.21;28.08;71661.72;5029781;28;20202;-84
2023/10/16 11:06:31;;;;;;;3.80;2.40;;;;;;;-143.21;27.55;71610.16;5029289;28;20253;-85
2023/10/16 11:11:51;;;;;;;4.57;2.50;;;;;;;-143.21;27.71;71614.13;5048193;28;20198;-84
2023/10/16 11:14:18;;;;;;;4.82;2.42;;;;;;;-143.21;27.14;71564.56;5051199;28;20209;-85
2023/10/16 11:16:48;;;;;;;5.78;2.30;;;;;;;-143.21;26.60;71526.91;5052035;28;20218;-83
2023/10/16 11:19:28;;;;;;;9.48;2.05;;;;;;;-143.21;26.61;71515.00;5051984;28;20194;-82
2023/10/16 11:21:56;;;;;;;2.63;2.05;;;;;;;-143.21;26.62;71544.75;5051761;28;20730;-81
2023/10/16 11:24:24;;;;;;;4.07;2.10;;;;;;;-143.21;27.18;71582.41;5061475;28;20229;-83
2023/10/16 11:26:54;;;;;;;2.42;2.13;;;;;;;-143.21;27.00;71572.50;5071686;28;20196;-85
2023/10/16 11:29:22;;;;;;;4.13;2.30;;;;;;;-143.21;27.21;71570.53;5071475;28;20229;-80
2023/10/16 11:31:52;;;;;;;4.32;2.20;;;;;;;-143.21;26.89;71507.06;5071920;28;20648;-78
2023/10/16 11:34:24;;;;;;;4.25;2.20;;;;;;;-143.21;26.63;71522.94;5070679;28;20232;-79
2023/10/16 11:36:57;;;;;;;2.40;1.85;;;;;;;-143.21;26.40;71495.19;5065662;28;20218;-87
2023/10/16 11:39:26;;;;;;;3.72;2.20;;;;;;;-143.21;26.47;71526.91;5071407;28;20243;-86
2023/10/16 11:41:56;;;;;;;6.15;2.40;;;;;;;-143.21;26.58;71556.63;5071226;28;20683;-87
2023/10/16 11:44:32;;;;;;;4.63;2.20;;;;;;;-143.21;26.52;71509.06;5071573;28;20198;-86
2023/10/16 11:47:03;;;;;;;4.55;2.00;;;;;;;-143.21;26.51;71453.53;5070952;28;20197;-84
2023/10/16 11:49:37;;;;;;;3.53;2.15;;;;;;;-143.21;26.07;71471.38;5071204;28;20694;-86
2023/10/16 11:52:19;;;;;;;3.63;2.33;;;;;;;-143.21;26.29;71489.22;5071817;28;20197;-85
2023/10/16 11:54:46;;;;;;;4.82;2.10;;;;;;;-143.21;26.22;71433.72;5071677;28;20264;-85
2023/10/16 11:57:14;;;;;;;6.35;1.95;;;;;;;-143.21;25.37;71362.34;5069962;28;20225;-83
2023/10/16 11:59:41;;;;;;;3.25;2.10;;;;;;;-143.21;25.42;71358.38;5070446;28;20198;-83
2023/10/16 12:02:12;;;;;;;3.55;2.05;;;;;;;-143.21;25.08;71362.34;5065439;28;20248;-84
2023/10/16 12:04:41;;;;;;;6.47;1.98;;;;;;;-143.21;25.20;71308.81;5054626;28;20633;-85
2023/10/16 12:07:08;;;;;;;2.75;2.20;;;;;;;-143.21;24.83;71237.44;5070921;28;20193;-84
2023/10/16 12:09:38;;;;;;;7.22;2.28;;;;;;;-143.21;24.24;71193.81;5070982;28;20227;-83
2023/10/16 12:12:06;;;;;;;5.88;2.28;;;;;;;-143.21;23.95;71185.88;5072517;28;20281;-85
2023/10/16 12:14:37;;;;;;;3.50;1.98;;;;;;;-143.21;23.90;71231.50;5072494;28;20284;-87
2023/10/16 12:17:21;;;;;;;5.15;2.20;;;;;;;-143.21;24.00;71179.94;5073325;28;20210;-87
2023/10/16 12:19:51;;;;;;;5.72;2.20;;;;;;;-143.21;23.73;71160.13;5071938;28;20205;-87
2023/10/16 12:22:20;;;;;;;2.20;2.00;;;;;;;-143.21;23.77;71219.59;5071108;28;20559;-85
2023/10/16 12:24:47;;;;;;;4.18;2.35;;;;;;;-143.21;24.24;71221.56;5071703;28;20212;-85
2023/10/16 12:27:15;;;;;;;5.05;2.00;;;;;;;-143.21;24.06;71195.81;5069977;28;20295;-86
2023/10/16 12:29:44;;;;;;;4.88;2.15;;;;;;;-143.21;23.64;71166.06;5061666;28;20233;-85
2023/10/16 12:32:12;;;;;;;3.28;2.03;;;;;;;-143.21;23.58;71177.97;5071097;28;20201;-86
2023/10/16 12:34:41;;;;;;;8.45;2.17;;;;;;;-143.21;23.79;71174.00;5071139;28;20247;-85
2023/10/16 12:37:07;;;;;;;3.17;1.83;;;;;;;-143.21;23.59;71136.31;5070345;28;20225;-85
2023/10/16 12:39:44;;;;;;;5.50;1.92;;;;;;;-143.21;23.40;71108.56;5070162;28;20209;-87
2023/10/16 12:42:13;;;;;;;3.92;2.03;;;;;;;-143.21;23.21;71061.00;5070257;28;20200;-85
2023/10/16 12:44:40;;;;;;;6.15;2.15;;;;;;;-143.21;23.51;71090.72;5070075;28;20681;-86
2023/10/16 12:47:07;;;;;;;6.00;1.90;;;;;;;-143.21;23.21;71072.88;5074045;28;20280;-86
2023/10/16 12:49:33;;;;;;;2.50;1.70;;;;;;;-143.21;23.03;71007.47;5075199;28;20201;-87
2023/10/16 12:52:02;;;;;;;2.65;1.63;;;;;;;-143.21;22.09;70912.31;5074134;28;20748;-84
2023/10/16 12:54:28;;;;;;;3.08;1.92;;;;;;;-143.21;21.70;70838.97;5074504;28;20205;-86
2023/10/16 12:56:57;;;;;;;5.68;1.90;;;;;;;-143.21;22.01;70842.94;5074270;28;20590;-86
2023/10/16 12:59:25;;;;;;;3.00;1.80;;;;;;;-143.21;21.84;70779.50;5074587;28;20205;-86
2023/10/16 13:01:52;;;;;;;4.93;1.90;;;;;;;-143.21;21.68;70755.72;5074643;28;20247;-86
2023/10/16 13:04:19;;;;;;;3.22;1.80;;;;;;;-143.21;20.99;70737.88;5073929;28;20310;-86
2023/10/16 13:06:46;;;;;;;3.72;1.70;;;;;;;-143.21;21.35;70795.38;5074319;28;20220;-87
2023/10/16 13:09:16;;;;;;;2.53;1.80;;;;;;;-143.21;20.96;70757.69;5074865;28;20212;-88
2023/10/16 13:11:43;;;;;;;3.38;1.80;;;;;;;-143.21;21.09;70710.13;5074104;28;20189;-87
2023/10/16 13:14:11;;;;;;;5.05;1.67;;;;;;;-143.21;20.82;70672.47;5074807;28;20201;-88
2023/10/16 13:16:38;;;;;;;6.45;1.70;;;;;;;-143.21;20.82;70680.38;5074810;28;20291;-88